createdAt,value
2019-04-23T00:02:48.850Z,1.90
2019-04-23T00:05:27.236Z,1.70
2019-04-23T00:07:52.865Z,1.70
2019-04-23T00:10:19.461Z,1.50
2019-04-23T00:12:44.078Z,1.60
2019-04-23T00:15:08.881Z,1.60
2019-04-23T00:17:37.315Z,1.63
2019-04-23T00:20:06.726Z,1.60
2019-04-23T00:22:54.709Z,1.53
2019-04-23T00:28:06.616Z,1.63
2019-04-23T00:30:41.460Z,1.73
2019-04-23T00:32:55.989Z,1.47
2019-04-23T00:35:25.752Z,1.70
2019-04-23T00:37:58.171Z,1.77
2019-04-23T00:40:25.907Z,1.70
2019-04-23T00:42:47.702Z,1.80
2019-04-23T00:45:16.622Z,1.97
2019-04-23T00:47:48.428Z,1.57
2019-04-23T00:52:40.766Z,1.63
2019-04-23T00:55:12.894Z,1.70
2019-04-23T00:57:38.924Z,1.60
2019-04-23T01:00:16.553Z,1.80
2019-04-23T01:05:07.147Z,1.83
2019-04-23T01:07:24.631Z,1.93
2019-04-23T01:10:03.123Z,1.83
2019-04-23T01:12:31.255Z,1.50
2019-04-23T01:14:58.255Z,1.73
2019-04-23T01:17:26.177Z,1.90
2019-04-23T01:19:49.556Z,1.97
2019-04-23T01:22:02.259Z,1.70
2019-04-23T01:24:37.174Z,1.77
2019-04-23T01:27:39.281Z,2.00
2019-04-23T01:30:03.341Z,2.20
2019-04-23T01:32:25.587Z,1.90
2019-04-23T01:34:59.069Z,2.03
2019-04-23T01:37:18.645Z,1.73
2019-04-23T01:39:45.492Z,2.03
2019-04-23T01:42:22.730Z,2.10
2019-04-23T01:44:42.547Z,2.03
2019-04-23T01:47:09.599Z,2.03
2019-04-23T01:49:44.969Z,1.70
2019-04-23T01:52:12.830Z,2.10
2019-04-23T01:54:40.286Z,2.00
2019-04-23T01:57:02.405Z,2.13
2019-04-23T01:59:31.636Z,2.20
2019-04-23T02:01:58.005Z,2.10
2019-04-23T02:06:50.507Z,2.40
2019-04-23T02:11:53.869Z,2.13
2019-04-23T02:14:14.770Z,1.90
2019-04-23T02:16:47.810Z,2.43
2019-04-23T02:19:16.787Z,1.90
2019-04-23T02:21:47.709Z,2.27
2019-04-23T02:24:12.173Z,1.97
2019-04-23T02:26:42.124Z,2.40
2019-04-23T02:34:29.268Z,2.30
2019-04-23T02:36:39.797Z,2.20
2019-04-23T02:38:55.485Z,2.63
2019-04-23T02:41:35.145Z,2.37
2019-04-23T02:44:07.013Z,2.53
2019-04-23T02:46:17.550Z,2.50
2019-04-23T02:49:00.006Z,2.50
2019-04-23T02:51:31.023Z,2.17
2019-04-23T02:54:12.724Z,2.30
2019-04-23T02:56:33.067Z,2.10
2019-04-23T03:03:53.301Z,2.20
2019-04-23T03:06:16.677Z,2.70
2019-04-23T03:08:42.793Z,2.40
2019-04-23T03:16:26.988Z,2.23
2019-04-23T03:18:47.733Z,2.00
2019-04-23T03:32:48.755Z,3.03
2019-04-23T03:37:00.576Z,1.87
2019-04-23T03:38:55.824Z,2.37
2019-04-23T03:41:32.435Z,2.30
2019-04-23T03:43:51.905Z,2.13
2019-04-23T03:46:27.866Z,2.07
2019-04-23T03:51:13.921Z,2.30
2019-04-23T03:56:12.498Z,2.50
2019-04-23T03:58:42.665Z,2.50
2019-04-23T04:01:09.413Z,2.20
2019-04-23T04:04:14.800Z,2.50
2019-04-23T04:06:05.388Z,2.13
2019-04-23T04:08:26.198Z,2.67
2019-04-23T04:11:09.253Z,2.07
2019-04-23T04:13:48.072Z,2.80
2019-04-23T04:18:33.147Z,2.60
2019-04-23T04:23:28.082Z,2.47
2019-04-23T04:25:49.980Z,2.67
2019-04-23T04:35:47.651Z,2.50
2019-04-23T04:40:49.969Z,2.53
2019-04-23T04:45:49.830Z,2.40
2019-04-23T04:48:09.554Z,2.60
2019-04-23T04:50:50.748Z,2.67
2019-04-23T04:55:48.104Z,2.57
2019-04-23T04:58:07.270Z,2.70
2019-04-23T05:00:59.629Z,2.80
2019-04-23T05:07:56.313Z,2.50
2019-04-23T05:10:38.667Z,3.17
2019-04-23T05:13:00.894Z,2.87
2019-04-23T05:15:16.894Z,2.43
2019-04-23T05:18:00.132Z,2.60
2019-04-23T05:20:22.000Z,2.87
2019-04-23T05:23:00.241Z,3.13
2019-04-23T05:25:12.552Z,2.63
2019-04-23T05:28:00.892Z,3.20
2019-04-23T05:30:16.839Z,3.20
2019-04-23T05:32:43.173Z,3.23
2019-04-23T05:35:10.013Z,2.60
2019-04-23T05:37:52.965Z,3.20
2019-04-23T05:40:08.523Z,3.13
2019-04-23T05:42:31.758Z,2.87
2019-04-23T05:47:29.092Z,2.93
2019-04-23T05:50:02.058Z,3.40
2019-04-23T05:52:24.107Z,3.17
2019-04-23T05:54:56.360Z,3.63
2019-04-23T05:57:14.333Z,3.10
2019-04-23T06:00:02.095Z,2.83
2019-04-23T06:02:19.734Z,3.47
2019-04-23T06:04:42.678Z,3.60
2019-04-23T06:07:23.793Z,3.60
2019-04-23T06:09:41.489Z,3.80
2019-04-23T06:12:04.727Z,3.60
2019-04-23T06:14:32.891Z,3.97
2019-04-23T06:17:07.956Z,3.80
2019-04-23T06:19:21.060Z,3.90
2019-04-23T06:24:29.126Z,3.70
2019-04-23T06:27:01.252Z,3.83
2019-04-23T06:36:46.309Z,4.13
2019-04-23T06:39:11.061Z,3.10
2019-04-23T06:41:47.619Z,4.00
2019-04-23T06:44:14.746Z,4.13
2019-04-23T06:46:45.434Z,3.77
2019-04-23T06:49:03.345Z,4.20
2019-04-23T06:51:37.730Z,4.00
2019-04-23T06:54:00.047Z,3.33
2019-04-23T06:56:35.206Z,4.77
2019-04-23T06:59:02.451Z,4.10
2019-04-23T07:01:19.120Z,4.30
2019-04-23T07:03:57.165Z,4.40
2019-04-23T07:06:23.306Z,4.17
2019-04-23T07:11:23.313Z,4.00
2019-04-23T07:16:09.506Z,4.63
2019-04-23T07:18:41.234Z,4.60
2019-04-23T07:21:12.956Z,4.40
2019-04-23T07:23:44.869Z,4.40
2019-04-23T07:26:20.397Z,4.37
2019-04-23T07:28:36.583Z,4.33
2019-04-23T07:31:11.995Z,4.47
2019-04-23T07:33:35.082Z,4.73
2019-04-23T07:36:00.464Z,5.77
2019-04-23T07:38:54.729Z,4.83
2019-04-23T07:41:41.098Z,4.87
2019-04-23T07:44:30.856Z,4.70
2019-04-23T07:51:59.038Z,5.13
2019-04-23T07:54:22.485Z,4.67
2019-04-23T07:56:53.907Z,5.07
2019-04-23T07:59:21.083Z,5.30
2019-04-23T08:01:47.108Z,5.03
2019-04-23T08:04:14.350Z,5.53
2019-04-23T08:06:37.568Z,4.93
2019-04-23T08:09:09.120Z,5.07
2019-04-23T08:11:40.682Z,5.50
2019-04-23T08:21:37.798Z,5.80
2019-04-23T08:24:00.255Z,5.40
2019-04-23T08:26:34.880Z,5.00
2019-04-23T08:29:06.342Z,5.23
2019-04-23T08:31:33.635Z,5.60
2019-04-23T08:34:07.230Z,6.03
2019-04-23T08:36:29.566Z,5.57
2019-04-23T08:38:55.723Z,6.03
2019-04-23T08:41:26.958Z,6.07
2019-04-23T08:44:21.478Z,5.77
2019-04-23T08:46:56.984Z,5.23
2019-04-23T08:49:22.744Z,6.10
2019-04-23T08:54:14.855Z,6.50
2019-04-23T08:59:22.880Z,5.83
2019-04-23T09:01:52.560Z,6.40
2019-04-23T09:04:00.475Z,6.40
2019-04-23T09:06:27.659Z,6.80
2019-04-23T09:08:58.569Z,5.53
2019-04-23T09:16:25.439Z,6.33
2019-04-23T09:18:53.118Z,6.53
2019-04-23T09:21:21.376Z,6.83
2019-04-23T09:23:51.685Z,6.70
2019-04-23T09:26:13.417Z,7.10
2019-04-23T09:31:41.203Z,6.90
2019-04-23T09:33:52.251Z,7.73
2019-04-23T09:36:22.421Z,6.97
2019-04-23T09:41:28.054Z,6.73
2019-04-23T09:44:23.206Z,6.20
2019-04-23T09:46:40.486Z,6.30
2019-04-23T09:49:16.196Z,7.87
2019-04-23T09:51:37.906Z,6.80
2019-04-23T09:54:09.368Z,6.73
2019-04-23T09:56:47.813Z,7.13
2019-04-23T09:59:20.853Z,7.80
2019-04-23T10:01:34.515Z,7.63
2019-04-23T10:04:04.100Z,7.55
2019-04-23T10:06:26.807Z,7.17
2019-04-23T10:08:54.431Z,8.00
2019-04-23T10:11:19.978Z,7.25
2019-04-23T10:13:48.187Z,7.42
2019-04-23T10:16:25.369Z,7.78
2019-04-23T10:21:17.456Z,8.05
2019-04-23T10:23:51.831Z,7.65
2019-04-23T10:26:19.635Z,8.85
2019-04-23T10:28:54.079Z,7.15
2019-04-23T10:31:20.913Z,8.13
2019-04-23T10:33:48.223Z,7.33
2019-04-23T10:36:19.114Z,7.78
2019-04-23T10:38:51.330Z,7.83
2019-04-23T10:41:13.973Z,8.08
2019-04-23T10:43:43.688Z,8.30
2019-04-23T10:46:29.683Z,7.05
2019-04-23T10:52:04.813Z,7.42
2019-04-23T11:02:30.932Z,8.65
2019-04-23T11:07:22.713Z,8.40
2019-04-23T11:14:58.421Z,8.05
2019-04-23T11:17:26.012Z,9.90
2019-04-23T11:22:42.501Z,7.95
2019-04-23T11:24:59.793Z,8.58
2019-04-23T11:27:14.727Z,8.50
2019-04-23T11:29:40.768Z,8.60
2019-04-23T11:32:30.649Z,8.28
2019-04-23T11:35:01.901Z,7.30
2019-04-23T11:37:12.654Z,8.75
2019-04-23T11:39:39.731Z,8.43
2019-04-23T11:42:06.754Z,8.28
2019-04-23T11:44:36.508Z,9.08
2019-04-23T11:52:00.128Z,8.10
2019-04-23T11:59:29.154Z,8.68
2019-04-23T12:01:53.242Z,8.35
2019-04-23T12:07:00.722Z,8.48
2019-04-23T12:09:34.736Z,9.40
2019-04-23T12:12:10.764Z,8.28
2019-04-23T12:14:37.514Z,9.33
2019-04-23T12:22:15.166Z,7.20
2019-04-23T12:27:01.008Z,7.87
2019-04-23T12:29:33.611Z,8.65
2019-04-23T12:32:28.480Z,8.15
2019-04-23T12:34:52.941Z,8.85
2019-04-23T12:37:24.118Z,8.05
2019-04-23T12:39:41.748Z,8.93
2019-04-23T12:42:38.928Z,7.92
2019-04-23T12:44:38.610Z,6.95
2019-04-23T12:47:19.689Z,8.65
2019-04-23T12:50:05.067Z,8.05
2019-04-23T12:52:12.863Z,8.40
2019-04-23T12:54:51.023Z,8.38
2019-04-23T12:59:36.731Z,8.30
2019-04-23T13:02:03.603Z,7.53
2019-04-23T13:04:33.585Z,8.03
2019-04-23T13:07:01.709Z,7.30
2019-04-23T13:09:42.969Z,7.90
2019-04-23T13:12:01.546Z,8.23
2019-04-23T13:14:35.082Z,7.97
2019-04-23T13:17:02.109Z,7.00
2019-04-23T13:19:37.411Z,7.67
2019-04-23T13:22:02.958Z,7.75
2019-04-23T13:24:15.733Z,8.28
2019-04-23T13:26:44.974Z,6.97
2019-04-23T13:29:28.612Z,8.35
2019-04-23T13:31:42.787Z,7.83
2019-04-23T13:34:14.936Z,8.23
2019-04-23T13:39:16.850Z,7.15
2019-04-23T13:41:31.328Z,7.37
2019-04-23T13:43:52.646Z,7.92
2019-04-23T13:46:32.043Z,7.85
2019-04-23T13:48:56.206Z,7.75
2019-04-23T13:51:25.838Z,7.20
2019-04-23T13:54:03.410Z,7.95
2019-04-23T13:56:39.156Z,7.40
2019-04-23T13:58:51.288Z,6.80
2019-04-23T14:09:20.165Z,7.97
2019-04-23T14:11:19.511Z,7.37
2019-04-23T14:16:13.817Z,8.05
2019-04-23T14:21:12.737Z,7.20
2019-04-23T14:28:28.871Z,7.05
2019-04-23T14:33:23.234Z,7.37
2019-04-23T14:38:21.865Z,7.83
2019-04-23T14:43:25.837Z,7.80
2019-04-23T14:48:23.476Z,7.37
2019-04-23T14:50:54.669Z,7.67
2019-04-23T14:53:18.137Z,7.65
2019-04-23T14:55:57.198Z,7.62
2019-04-23T14:58:21.410Z,7.15
2019-04-23T15:00:53.627Z,8.13
2019-04-23T15:03:32.448Z,8.88
2019-04-23T15:06:00.128Z,9.33
2019-04-23T15:08:20.717Z,8.65
2019-04-23T15:10:58.053Z,8.83
2019-04-23T15:13:06.948Z,9.78
2019-04-23T15:15:39.963Z,8.28
2019-04-23T15:18:09.469Z,9.75
2019-04-23T15:20:47.381Z,8.35
2019-04-23T15:23:25.428Z,9.15
2019-04-23T15:25:53.327Z,8.90
2019-04-23T15:28:06.862Z,8.40
2019-04-23T15:30:30.261Z,8.03
2019-04-23T15:33:11.807Z,9.00
2019-04-23T15:42:58.120Z,9.25
2019-04-23T15:45:21.061Z,8.28
2019-04-23T15:47:58.813Z,8.15
2019-04-23T15:55:06.922Z,8.15
2019-04-23T15:58:02.900Z,7.70
2019-04-23T16:00:07.259Z,8.28
2019-04-23T16:02:06.706Z,7.42
2019-04-23T16:04:33.737Z,7.72
2019-04-23T16:06:59.756Z,7.87
2019-04-23T16:09:54.843Z,7.72
2019-04-23T16:12:17.350Z,7.45
2019-04-23T16:14:58.436Z,7.62
2019-04-23T16:17:25.667Z,8.00
2019-04-23T16:20:11.438Z,6.95
2019-04-23T16:24:48.757Z,7.20
2019-04-23T16:27:13.840Z,7.00
2019-04-23T16:29:53.758Z,6.65
2019-04-23T16:32:20.512Z,7.95
2019-04-23T16:35:03.267Z,7.00
2019-04-23T16:37:15.364Z,7.80
2019-04-23T16:39:39.091Z,7.55
2019-04-23T16:42:10.125Z,7.28
2019-04-23T16:47:18.673Z,6.90
2019-04-23T16:49:51.053Z,7.70
2019-04-23T16:52:02.073Z,7.58
2019-04-23T16:54:31.270Z,7.35
2019-04-23T16:59:34.973Z,7.30
2019-04-23T17:02:03.507Z,6.85
2019-04-23T17:04:24.342Z,7.60
2019-04-23T17:06:52.365Z,6.95
2019-04-23T17:09:18.626Z,7.28
2019-04-23T17:11:49.056Z,8.50
2019-04-23T17:14:21.073Z,7.65
2019-04-23T17:16:38.351Z,7.67
2019-04-23T17:21:36.711Z,6.70
2019-04-23T17:24:14.605Z,7.12
2019-04-23T17:29:08.693Z,7.42
2019-04-23T17:31:35.650Z,7.03
2019-04-23T17:39:07.113Z,7.22
2019-04-23T17:44:18.878Z,8.03
2019-04-23T17:46:39.133Z,6.80
2019-04-23T17:49:09.767Z,7.50
2019-04-23T17:51:28.096Z,7.85
2019-04-23T17:53:54.743Z,7.45
2019-04-23T17:58:53.363Z,7.08
2019-04-23T18:03:57.100Z,7.78
2019-04-23T18:06:30.168Z,7.30
2019-04-23T18:08:57.632Z,7.25
2019-04-23T18:13:46.369Z,7.03
2019-04-23T18:18:46.394Z,7.10
2019-04-23T18:21:23.252Z,7.58
2019-04-23T18:24:02.731Z,7.10
2019-04-23T18:26:38.661Z,7.05
2019-04-23T18:29:08.468Z,7.58
2019-04-23T18:31:31.805Z,7.75
2019-04-23T18:34:16.879Z,6.80
2019-04-23T18:36:26.111Z,7.95
2019-04-23T18:38:59.846Z,6.83
2019-04-23T18:41:18.016Z,7.80
2019-04-23T18:43:56.413Z,7.67
2019-04-23T18:46:22.904Z,7.50
2019-04-23T18:48:50.097Z,9.60
2019-04-23T18:51:10.638Z,8.75
2019-04-23T18:53:54.587Z,8.75
2019-04-23T18:56:15.314Z,8.00
2019-04-23T19:01:27.839Z,8.10
2019-04-23T19:03:55.602Z,8.55
2019-04-23T19:11:58.202Z,7.33
2019-04-23T19:14:30.518Z,7.45
2019-04-23T19:19:27.300Z,7.87
2019-04-23T19:22:09.250Z,8.30
2019-04-23T19:29:11.574Z,8.73
2019-04-23T19:31:52.170Z,7.53
2019-04-23T19:34:42.697Z,7.70
2019-04-23T19:36:54.713Z,8.80
2019-04-23T19:39:19.276Z,9.00
2019-04-23T19:41:54.232Z,9.80
2019-04-23T19:44:08.434Z,9.65
2019-04-23T19:46:50.585Z,8.85
2019-04-23T19:49:23.609Z,9.35
2019-04-23T19:51:39.783Z,9.48
2019-04-23T19:54:09.549Z,9.08
2019-04-23T19:56:34.007Z,8.40
2019-04-23T19:59:01.853Z,9.80
2019-04-23T20:01:23.379Z,8.53
2019-04-23T20:03:56.248Z,8.88
2019-04-23T20:11:13.650Z,9.68
2019-04-23T20:13:52.304Z,8.83
2019-04-23T20:16:10.885Z,8.63
2019-04-23T20:18:46.200Z,9.40
2019-04-23T20:20:59.435Z,9.98
2019-04-23T20:24:04.358Z,10.13
2019-04-23T20:26:13.598Z,8.75
2019-04-23T20:34:07.663Z,9.80
2019-04-23T20:36:25.940Z,10.15
2019-04-23T20:38:57.783Z,11.48
2019-04-23T20:41:26.226Z,9.33
2019-04-23T20:43:53.987Z,9.85
2019-04-23T20:46:26.033Z,10.43
2019-04-23T20:51:07.921Z,10.53
2019-04-23T20:53:43.322Z,12.58
2019-04-23T20:58:39.475Z,10.82
2019-04-23T21:01:13.277Z,10.93
2019-04-23T21:06:07.155Z,10.73
2019-04-23T21:08:51.830Z,11.03
2019-04-23T21:10:55.417Z,10.80
2019-04-23T21:13:43.068Z,12.30
2019-04-23T21:15:52.631Z,11.37
2019-04-23T21:20:54.324Z,11.53
2019-04-23T21:33:20.057Z,12.57
2019-04-23T21:38:47.560Z,12.47
2019-04-23T21:43:55.891Z,12.50
2019-04-23T21:48:49.015Z,12.63
2019-04-23T21:51:28.511Z,12.13
2019-04-23T21:53:42.269Z,12.50
2019-04-23T21:56:12.322Z,12.53
2019-04-23T21:58:46.601Z,12.87
2019-04-23T22:01:06.465Z,13.03
2019-04-23T22:03:54.092Z,12.37
2019-04-23T22:06:04.576Z,12.67
2019-04-23T22:08:25.928Z,12.47
2019-04-23T22:11:26.919Z,12.47
2019-04-23T22:13:29.239Z,12.83
2019-04-23T22:18:23.573Z,12.67
2019-04-23T22:20:55.886Z,12.93
2019-04-23T22:23:18.296Z,12.67
2019-04-23T22:25:49.011Z,13.50
2019-04-23T22:28:10.401Z,12.17
2019-04-23T22:30:50.560Z,12.63
2019-04-23T22:33:14.084Z,12.87
2019-04-23T22:35:37.962Z,13.57
2019-04-23T22:38:17.793Z,13.97
2019-04-23T22:40:34.371Z,14.07
2019-04-23T22:43:16.381Z,13.20
2019-04-23T22:45:40.316Z,12.50
2019-04-23T22:48:02.820Z,12.90
2019-04-23T22:53:08.115Z,12.30
2019-04-23T22:55:23.775Z,12.83
2019-04-23T23:05:52.226Z,13.53
2019-04-23T23:08:10.728Z,13.63
2019-04-23T23:10:27.741Z,12.33
2019-04-23T23:15:22.712Z,12.17
2019-04-23T23:20:36.096Z,14.03
2019-04-23T23:22:58.503Z,13.57
2019-04-23T23:25:18.819Z,14.03
2019-04-23T23:27:55.092Z,14.57
2019-04-23T23:30:08.833Z,13.73
2019-04-23T23:32:40.929Z,13.23
2019-04-23T23:37:36.918Z,13.87
2019-04-23T23:40:15.111Z,12.80
2019-04-23T23:42:37.491Z,13.47
2019-04-23T23:45:02.230Z,12.70
2019-04-23T23:47:18.254Z,12.50
2019-04-23T23:50:00.899Z,11.60
2019-04-23T23:52:35.073Z,12.00
2019-04-23T23:54:52.713Z,12.73
2019-04-23T23:57:16.462Z,12.50
